NCAR-RAP Real-Time Weather Data

Output produced by METARs form (12 August 2020  18:15 UTC)
found at http://weather.rap.ucar.edu/surface/
 
KAPN 121754Z 01006KT 10SM CLR 29/13 A3009 RMK AO2 SLP188 T02940133 10294 20178 51004
KAPN 121654Z VRB05KT 10SM CLR 29/13 A3009 RMK AO2 SLP188 T02890133
KAPN 121554Z VRB05KT 10SM CLR 28/14 A3009 RMK AO2 SLP189 T02780144
KAPN 121454Z 31005KT 10SM CLR 26/17 A3008 RMK AO2 SLP185 T02560167 50002
KAPN 121354Z 27006KT 10SM CLR 24/16 A3009 RMK AO2 SLP186 T02390156
KAPN 121254Z 26004KT 10SM CLR 22/14 A3009 RMK AO2 SLP187 T02170144
KAPN 121154Z 23003KT 10SM CLR 18/13 A3008 RMK AO2 SLP183 T01780128 10178 20139 52016
KAPN 121054Z AUTO 00000KT 10SM CLR 14/12 A3006 RMK AO2 SLP179 T01390117 TSNO $
KAPN 120954Z AUTO 00000KT 10SM CLR 16/11 A3004 RMK AO2 SLP171 T01610111 TSNO $
KAPN 120854Z AUTO 22005KT 10SM CLR 17/11 A3003 RMK AO2 SLP167 T01670111 53008 $
KAPN 120754Z AUTO 23003KT 10SM CLR 17/11 A3002 RMK AO2 SLP162 T01720111 $
KAPN 120654Z AUTO 23003KT 10SM CLR 17/11 A3000 RMK AO2 SLP158 T01720111 $
KAPN 120554Z AUTO 22005KT 10SM CLR 16/11 A3001 RMK AO2 SLP160 T01610111 10250 20133 51009 $
KAPN 120454Z AUTO 00000KT 10SM CLR 14/12 A3000 RMK AO2 SLP159 T01440117 402780133 $
KAPN 120354Z AUTO 17003KT 10SM CLR 14/12 A3000 RMK AO2 SLP157 T01390117 $
KAPN 120254Z AUTO 00000KT 10SM CLR 18/11 A2998 RMK AO2 SLP151 T01830111 51013 $
KAPN 120154Z AUTO 23003KT 10SM CLR 21/11 A2997 RMK AO2 SLP149 T02060106 $
KAPN 120054Z AUTO 00000KT 10SM CLR 22/12 A2996 RMK AO2 SLP143 T02170122 $
KAPN 112354Z AUTO 28003KT 10SM CLR 25/10 A2994 RMK AO2 SLP137 T02500100 10278 20250 53001 $
KAPN 112254Z AUTO 30006KT 10SM CLR 26/09 A2994 RMK AO2 SLP135 T02610089 $
KAPN 112154Z AUTO 31010KT 10SM CLR 27/09 A2994 RMK AO2 SLP136 T02720089 $
KAPN 112054Z 31007G18KT 280V340 10SM CLR 27/08 A2994 RMK AO2 SLP136 T02720083 53004